Time;durP1;ratioP1;P1;durP2;ratioP2;P2;SDS_P1;SDS_P2;PMS_P1;PMS_P2;Temp;Humidity;BMP_temperature;BMP_pressure;BME280_temperature;BME280_humidity;BME280_pressure;Samples;Min_cycle;Max_cycle;Signal;HPM_P1;HPM_P2
2024/04/11 00:01:24;;;;;;;4.72;3.17;;;;;;;;;;5528393;25;20012;-57
2024/04/11 00:03:50;;;;;;;3.83;3.30;;;;;;;;;;5528192;25;19994;-57
2024/04/11 00:06:15;;;;;;;3.63;3.33;;;;;;;;;;5528413;25;19994;-57
2024/04/11 00:08:41;;;;;;;4.03;3.10;;;;;;;;;;5528318;25;20538;-57
2024/04/11 00:11:06;;;;;;;3.92;2.97;;;;;;;;;;5528268;25;19993;-57
2024/04/11 00:13:32;;;;;;;7.57;3.13;;;;;;;;;;5526634;26;19994;-57
2024/04/11 00:15:57;;;;;;;4.32;3.20;;;;;;;;;;5528212;26;19989;-57
2024/04/11 00:18:24;;;;;;;3.40;3.08;;;;;;;;;;5528262;25;20447;-58
2024/04/11 00:20:49;;;;;;;5.38;3.50;;;;;;;;;;5528017;25;20008;-58
2024/04/11 00:23:15;;;;;;;4.60;3.20;;;;;;;;;;5528077;25;20447;-58
2024/04/11 00:25:42;;;;;;;4.78;3.33;;;;;;;;;;5527704;25;20008;-58
2024/04/11 00:28:07;;;;;;;4.32;3.67;;;;;;;;;;5527750;25;20005;-58
2024/04/11 00:30:33;;;;;;;5.03;3.60;;;;;;;;;;5526329;26;20065;-57
2024/04/11 00:32:59;;;;;;;3.80;3.47;;;;;;;;;;5528329;25;19997;-57
2024/04/11 00:35:25;;;;;;;4.32;3.42;;;;;;;;;;5526545;26;20443;-58
2024/04/11 00:37:51;;;;;;;6.25;3.85;;;;;;;;;;5528052;26;20002;-58
2024/04/11 00:40:17;;;;;;;5.75;3.78;;;;;;;;;;5528196;25;19993;-58
2024/04/11 00:42:43;;;;;;;6.07;4.22;;;;;;;;;;5528143;25;20070;-57
2024/04/11 00:45:09;;;;;;;6.75;4.15;;;;;;;;;;5527953;25;19997;-57
2024/04/11 00:47:36;;;;;;;4.25;3.83;;;;;;;;;;5527349;25;20335;-57
2024/04/11 00:50:02;;;;;;;4.55;3.72;;;;;;;;;;5527957;25;19998;-57
2024/04/11 00:52:28;;;;;;;4.30;3.90;;;;;;;;;;5525319;26;20455;-57
2024/04/11 00:54:54;;;;;;;4.15;3.45;;;;;;;;;;5526886;26;20008;-58
2024/04/11 00:57:20;;;;;;;4.65;2.92;;;;;;;;;;5525871;26;19997;-58
2024/04/11 00:59:47;;;;;;;3.90;3.22;;;;;;;;;;5527365;25;20444;-58
2024/04/11 01:02:14;;;;;;;3.70;3.25;;;;;;;;;;5526714;25;20462;-58
2024/04/11 01:04:40;;;;;;;6.00;3.53;;;;;;;;;;5524212;25;20008;-58
2024/04/11 01:07:10;;;;;;;3.90;3.50;;;;;;;;;;5523878;25;20332;-58
2024/04/11 01:09:37;;;;;;;3.67;3.38;;;;;;;;;;5524497;25;20009;-58
2024/04/11 01:12:03;;;;;;;4.88;3.42;;;;;;;;;;5524366;25;20007;-58
2024/04/11 01:14:28;;;;;;;3.58;3.13;;;;;;;;;;5524526;25;19993;-58
2024/04/11 01:16:54;;;;;;;4.30;3.20;;;;;;;;;;5524344;25;20008;-58
2024/04/11 01:19:19;;;;;;;3.72;3.42;;;;;;;;;;5526809;25;20324;-58
2024/04/11 01:21:45;;;;;;;3.70;3.20;;;;;;;;;;5527235;25;20004;-57
2024/04/11 01:24:13;;;;;;;4.88;3.00;;;;;;;;;;5526877;25;19997;-58
2024/04/11 01:26:38;;;;;;;3.70;3.13;;;;;;;;;;5527023;25;19998;-58
2024/04/11 01:29:06;;;;;;;4.95;3.30;;;;;;;;;;5527254;25;20004;-58
2024/04/11 01:31:33;;;;;;;4.40;3.20;;;;;;;;;;5527685;25;20004;-58
2024/04/11 01:33:59;;;;;;;4.93;3.40;;;;;;;;;;5527161;25;19993;-58
2024/04/11 01:36:25;;;;;;;3.30;2.78;;;;;;;;;;5526737;25;20388;-58
2024/04/11 01:38:50;;;;;;;3.50;3.20;;;;;;;;;;5527129;25;19993;-58
2024/04/11 01:41:15;;;;;;;6.18;3.65;;;;;;;;;;5527333;25;19990;-58
2024/04/11 01:43:41;;;;;;;3.60;3.28;;;;;;;;;;5527299;25;20392;-58
2024/04/11 01:46:07;;;;;;;5.70;3.47;;;;;;;;;;5527297;25;19993;-58
2024/04/11 01:48:33;;;;;;;6.68;3.90;;;;;;;;;;5494355;26;20041;-57
2024/04/11 01:50:58;;;;;;;4.15;3.38;;;;;;;;;;5527268;25;20008;-57
2024/04/11 01:53:24;;;;;;;3.70;3.35;;;;;;;;;;5526750;25;20004;-57
2024/04/11 01:55:49;;;;;;;5.05;3.58;;;;;;;;;;5524883;26;20415;-57
2024/04/11 01:58:15;;;;;;;4.07;3.53;;;;;;;;;;5526510;25;19993;-57
2024/04/11 02:00:41;;;;;;;4.90;3.70;;;;;;;;;;5526758;25;20004;-58
2024/04/11 02:03:08;;;;;;;4.53;3.60;;;;;;;;;;5526617;25;20004;-57
2024/04/11 02:05:34;;;;;;;8.10;4.63;;;;;;;;;;5526808;25;20005;-57
2024/04/11 02:08:01;;;;;;;4.35;3.95;;;;;;;;;;5526238;25;19997;-57
2024/04/11 02:10:27;;;;;;;5.30;3.53;;;;;;;;;;5526593;25;20090;-57
2024/04/11 02:12:52;;;;;;;6.78;3.90;;;;;;;;;;5526464;25;20005;-57
2024/04/11 02:15:18;;;;;;;3.88;3.30;;;;;;;;;;5526583;25;19998;-57
2024/04/11 02:17:43;;;;;;;4.10;3.60;;;;;;;;;;5526478;25;20004;-57
2024/04/11 02:20:13;;;;;;;4.53;3.83;;;;;;;;;;5524396;26;19994;-57
2024/04/11 02:22:38;;;;;;;6.40;3.75;;;;;;;;;;5526215;26;20008;-57
2024/04/11 02:25:07;;;;;;;5.00;3.65;;;;;;;;;;5526354;26;19997;-57
2024/04/11 02:27:34;;;;;;;4.43;3.22;;;;;;;;;;5526057;25;20012;-57
2024/04/11 02:29:59;;;;;;;3.72;3.40;;;;;;;;;;5526441;25;19997;-57
2024/04/11 02:32:27;;;;;;;4.30;3.83;;;;;;;;;;5526569;25;20001;-57
2024/04/11 02:34:52;;;;;;;3.88;3.45;;;;;;;;;;5526314;25;19993;-57
2024/04/11 02:37:18;;;;;;;4.10;3.30;;;;;;;;;;5526517;25;19994;-58
2024/04/11 02:39:43;;;;;;;4.00;3.60;;;;;;;;;;5526176;26;20008;-58
2024/04/11 02:42:09;;;;;;;4.45;3.80;;;;;;;;;;5525938;25;19997;-58
2024/04/11 02:44:36;;;;;;;3.70;3.38;;;;;;;;;;5526053;26;19993;-58
2024/04/11 02:47:01;;;;;;;3.67;3.30;;;;;;;;;;5525494;25;20025;-57
2024/04/11 02:49:34;;;;;;;6.07;3.78;;;;;;;;;;5528482;25;20504;-57
2024/04/11 02:51:59;;;;;;;4.65;3.45;;;;;;;;;;5529582;26;19997;-57
2024/04/11 02:56:53;;;;;;;13.20;7.95;;;;;;;;;;5505537;20;20421;-62
2024/04/11 02:59:19;;;;;;;4.85;3.80;;;;;;;;;;5504386;21;20010;-63
2024/04/11 03:01:57;;;;;;;4.22;3.63;;;;;;;;;;5511454;21;20340;-62
2024/04/11 03:04:28;;;;;;;5.10;4.05;;;;;;;;;;5415749;26;20008;-63
2024/04/11 03:06:54;;;;;;;4.57;4.15;;;;;;;;;;5388519;21;20025;-63
2024/04/11 03:09:19;;;;;;;4.40;4.00;;;;;;;;;;5401892;21;20448;-63
2024/04/11 03:11:45;;;;;;;8.23;4.45;;;;;;;;;;5435987;21;20023;-57
2024/04/11 03:14:10;;;;;;;7.20;4.00;;;;;;;;;;5419357;26;20003;-63
2024/04/11 03:16:36;;;;;;;7.03;4.22;;;;;;;;;;5418071;26;20003;-63
2024/04/11 03:19:01;;;;;;;5.78;4.32;;;;;;;;;;5417839;26;20404;-63
2024/04/11 03:21:27;;;;;;;8.85;4.57;;;;;;;;;;5419804;26;19995;-63
2024/04/11 03:23:52;;;;;;;5.10;4.55;;;;;;;;;;5419349;26;19995;-63
2024/04/11 03:26:18;;;;;;;5.00;3.60;;;;;;;;;;5419711;26;19999;-63
2024/04/11 03:28:43;;;;;;;5.13;3.95;;;;;;;;;;5419304;26;20000;-63
2024/04/11 03:31:10;;;;;;;7.38;3.85;;;;;;;;;;5419692;26;20010;-63
2024/04/11 03:33:36;;;;;;;7.80;4.03;;;;;;;;;;5419594;26;20420;-63
2024/04/11 03:36:05;;;;;;;7.82;4.30;;;;;;;;;;5419455;26;19999;-63
2024/04/11 03:38:30;;;;;;;7.03;4.40;;;;;;;;;;5419375;26;20368;-63
2024/04/11 03:40:56;;;;;;;4.47;3.70;;;;;;;;;;5417750;26;19996;-63
2024/04/11 03:43:22;;;;;;;4.35;3.78;;;;;;;;;;5419129;26;19995;-63
2024/04/11 03:45:47;;;;;;;5.10;3.90;;;;;;;;;;5419561;26;20007;-63
2024/04/11 03:48:13;;;;;;;7.07;3.95;;;;;;;;;;5418193;26;20004;-63
2024/04/11 03:50:38;;;;;;;4.90;3.60;;;;;;;;;;5415930;26;19999;-63
2024/04/11 03:53:05;;;;;;;6.32;3.80;;;;;;;;;;5416281;26;19999;-63
2024/04/11 03:55:31;;;;;;;5.60;3.92;;;;;;;;;;5418905;26;19999;-63
2024/04/11 03:57:58;;;;;;;4.68;3.78;;;;;;;;;;5417514;26;20077;-63
2024/04/11 04:00:24;;;;;;;5.13;3.67;;;;;;;;;;5418087;26;20027;-63
2024/04/11 04:02:50;;;;;;;4.68;3.70;;;;;;;;;;5416501;26;20006;-63
2024/04/11 04:05:15;;;;;;;4.35;3.53;;;;;;;;;;5415702;26;19996;-62
2024/04/11 04:07:41;;;;;;;4.25;3.40;;;;;;;;;;5415740;26;19996;-63
2024/04/11 04:10:07;;;;;;;4.05;3.50;;;;;;;;;;5415285;26;20006;-62
2024/04/11 04:12:32;;;;;;;3.40;3.10;;;;;;;;;;5415779;26;20121;-63
2024/04/11 04:14:57;;;;;;;5.75;3.63;;;;;;;;;;5415697;26;19987;-62
2024/04/11 04:17:24;;;;;;;4.90;3.58;;;;;;;;;;5415178;26;20338;-63
2024/04/11 04:19:50;;;;;;;3.95;3.65;;;;;;;;;;5418860;26;19996;-63
2024/04/11 04:22:16;;;;;;;5.88;4.10;;;;;;;;;;5418827;26;19995;-62
2024/04/11 04:24:41;;;;;;;5.72;4.22;;;;;;;;;;5418584;26;20010;-63
2024/04/11 04:27:07;;;;;;;6.82;5.13;;;;;;;;;;5419044;26;19992;-63
2024/04/11 04:29:33;;;;;;;5.80;5.28;;;;;;;;;;5418276;26;20000;-63
2024/04/11 04:31:58;;;;;;;7.60;6.15;;;;;;;;;;5418785;26;20351;-62
2024/04/11 04:34:25;;;;;;;4.97;4.45;;;;;;;;;;5418523;26;20000;-62
2024/04/11 04:36:51;;;;;;;5.20;4.78;;;;;;;;;;5418523;26;20084;-62
2024/04/11 04:39:30;;;;;;;4.55;4.10;;;;;;;;;;5418759;26;19999;-62
2024/04/11 04:41:55;;;;;;;4.73;3.90;;;;;;;;;;5418705;26;20029;-62
2024/04/11 04:44:22;;;;;;;4.22;3.78;;;;;;;;;;5416763;26;20375;-62
2024/04/11 04:46:48;;;;;;;4.15;3.80;;;;;;;;;;5418297;26;20384;-62
2024/04/11 04:49:13;;;;;;;5.07;3.25;;;;;;;;;;5417996;26;20010;-62
2024/04/11 04:51:39;;;;;;;4.47;3.30;;;;;;;;;;5418379;26;20096;-62
2024/04/11 04:54:04;;;;;;;4.72;3.75;;;;;;;;;;5418267;26;19995;-62
2024/04/11 04:56:32;;;;;;;6.45;4.10;;;;;;;;;;5418302;26;20347;-62
2024/04/11 04:58:58;;;;;;;4.13;3.72;;;;;;;;;;5416761;26;20463;-62
2024/04/11 05:01:26;;;;;;;4.90;3.55;;;;;;;;;;5418343;26;20031;-62
2024/04/11 05:03:52;;;;;;;4.30;3.80;;;;;;;;;;5417868;26;19996;-62
2024/04/11 05:06:18;;;;;;;4.88;4.43;;;;;;;;;;5418366;26;20333;-62
2024/04/11 05:08:48;;;;;;;5.88;4.15;;;;;;;;;;5418241;26;19991;-62
2024/04/11 05:11:14;;;;;;;4.78;3.95;;;;;;;;;;5417098;26;20072;-62
2024/04/11 05:13:39;;;;;;;3.65;3.15;;;;;;;;;;5418119;26;20011;-63
2024/04/11 05:16:08;;;;;;;5.35;3.55;;;;;;;;;;5418398;26;20427;-62
2024/04/11 05:18:37;;;;;;;5.03;3.15;;;;;;;;;;5418281;26;20434;-62
2024/04/11 05:21:06;;;;;;;4.60;3.17;;;;;;;;;;5418022;26;20003;-62
2024/04/11 05:23:32;;;;;;;5.50;3.60;;;;;;;;;;5418033;26;20006;-62
2024/04/11 05:25:58;;;;;;;8.82;3.28;;;;;;;;;;5418028;26;20023;-62
2024/04/11 05:28:34;;;;;;;6.90;3.65;;;;;;;;;;5416207;26;20032;-63
2024/04/11 05:31:06;;;;;;;6.80;4.03;;;;;;;;;;5418434;26;20004;-55
2024/04/11 05:33:36;;;;;;;6.93;4.13;;;;;;;;;;5418197;26;20037;-55
2024/04/11 05:36:01;;;;;;;8.00;4.00;;;;;;;;;;5418393;26;19999;-55
2024/04/11 05:38:27;;;;;;;5.50;3.63;;;;;;;;;;5418542;26;20015;-55
2024/04/11 05:40:52;;;;;;;4.22;3.83;;;;;;;;;;5414873;26;19999;-55
2024/04/11 05:43:21;;;;;;;4.90;3.63;;;;;;;;;;5415026;26;20003;-55
2024/04/11 05:45:46;;;;;;;5.72;3.92;;;;;;;;;;5414623;26;20318;-55
2024/04/11 05:48:12;;;;;;;17.52;9.55;;;;;;;;;;5412572;26;20014;-55
2024/04/11 05:50:38;;;;;;;37.83;22.73;;;;;;;;;;5412882;26;19999;-55
2024/04/11 05:53:06;;;;;;;49.60;31.33;;;;;;;;;;5414441;26;19995;-55
2024/04/11 05:55:32;;;;;;;31.05;20.63;;;;;;;;;;5415816;26;19999;-55
2024/04/11 05:57:57;;;;;;;21.92;15.73;;;;;;;;;;5417875;26;20000;-55
2024/04/11 06:00:29;;;;;;;4.28;3.88;;;;;;;;;;5417567;26;20433;-55
2024/04/11 06:02:57;;;;;;;5.25;3.65;;;;;;;;;;5417760;26;20002;-55
2024/04/11 06:05:22;;;;;;;3.75;3.10;;;;;;;;;;5417456;26;20325;-55
2024/04/11 06:07:50;;;;;;;5.97;3.50;;;;;;;;;;5415634;26;20348;-55
2024/04/11 06:10:20;;;;;;;3.38;3.00;;;;;;;;;;5417202;26;20005;-55
2024/04/11 06:12:45;;;;;;;3.13;2.90;;;;;;;;;;5417718;26;20326;-55
2024/04/11 06:15:11;;;;;;;4.65;4.10;;;;;;;;;;5417405;26;20004;-62
2024/04/11 06:17:36;;;;;;;17.23;8.75;;;;;;;;;;5417489;26;20068;-63
2024/04/11 06:20:03;;;;;;;10.40;5.70;;;;;;;;;;5417567;26;19995;-62
2024/04/11 06:22:28;;;;;;;4.05;3.30;;;;;;;;;;5415219;26;20096;-62
2024/04/11 06:24:54;;;;;;;7.47;4.78;;;;;;;;;;5417434;26;20422;-62
2024/04/11 06:27:20;;;;;;;4.05;3.58;;;;;;;;;;5417314;26;20007;-63
2024/04/11 06:29:45;;;;;;;6.43;3.40;;;;;;;;;;5417626;26;20041;-62
2024/04/11 06:32:15;;;;;;;4.95;3.20;;;;;;;;;;5417146;26;20333;-62
2024/04/11 06:34:43;;;;;;;6.32;3.40;;;;;;;;;;5417224;26;20010;-62
2024/04/11 06:37:11;;;;;;;4.50;3.00;;;;;;;;;;5417134;26;20007;-62
2024/04/11 06:39:38;;;;;;;4.05;2.88;;;;;;;;;;5416996;26;19995;-62
2024/04/11 06:42:10;;;;;;;3.67;2.80;;;;;;;;;;5416905;26;20438;-62
2024/04/11 06:44:37;;;;;;;4.68;2.70;;;;;;;;;;5416796;26;20027;-62
2024/04/11 06:47:03;;;;;;;2.80;2.60;;;;;;;;;;5414925;26;20007;-55
2024/04/11 06:49:28;;;;;;;3.88;2.78;;;;;;;;;;5416669;26;20417;-55
2024/04/11 06:51:54;;;;;;;3.95;2.75;;;;;;;;;;5416879;26;19991;-55
2024/04/11 06:54:19;;;;;;;11.90;6.47;;;;;;;;;;5416928;26;19996;-55
2024/04/11 06:56:45;;;;;;;11.27;5.85;;;;;;;;;;5417223;26;20008;-55
2024/04/11 06:59:17;;;;;;;8.50;5.45;;;;;;;;;;5414525;26;20027;-55
2024/04/11 07:01:48;;;;;;;5.28;3.70;;;;;;;;;;5417021;26;20015;-55
2024/04/11 07:04:14;;;;;;;7.97;5.60;;;;;;;;;;5416617;26;20426;-55
2024/04/11 07:06:39;;;;;;;7.72;4.30;;;;;;;;;;5416400;26;20094;-55
2024/04/11 07:09:11;;;;;;;4.28;3.90;;;;;;;;;;5416288;26;20006;-55
2024/04/11 07:11:40;;;;;;;4.05;3.60;;;;;;;;;;5416061;26;19995;-55
2024/04/11 07:14:11;;;;;;;5.88;3.80;;;;;;;;;;5416582;26;20004;-55
2024/04/11 07:16:40;;;;;;;4.03;3.60;;;;;;;;;;5416581;26;20024;-55
2024/04/11 07:19:08;;;;;;;4.70;3.65;;;;;;;;;;5416593;26;20000;-55
2024/04/11 07:21:34;;;;;;;5.57;4.22;;;;;;;;;;5416403;26;20072;-55
2024/04/11 07:24:03;;;;;;;3.92;3.42;;;;;;;;;;5416458;26;19999;-55
2024/04/11 07:26:32;;;;;;;4.22;3.38;;;;;;;;;;5416603;26;20141;-55
2024/04/11 07:29:01;;;;;;;3.78;3.45;;;;;;;;;;5416381;26;20007;-55
2024/04/11 07:31:30;;;;;;;4.15;3.28;;;;;;;;;;5416295;26;20000;-55
2024/04/11 07:33:58;;;;;;;4.57;3.63;;;;;;;;;;5416601;26;20429;-55
2024/04/11 07:36:25;;;;;;;6.32;3.67;;;;;;;;;;5419083;26;19995;-55
2024/04/11 07:38:57;;;;;;;4.40;3.58;;;;;;;;;;5419609;26;19999;-55
2024/04/11 07:41:28;;;;;;;5.40;3.78;;;;;;;;;;5419471;26;20007;-55
2024/04/11 07:43:57;;;;;;;5.47;3.90;;;;;;;;;;5417683;26;20422;-55
2024/04/11 07:46:28;;;;;;;5.57;3.90;;;;;;;;;;5419234;26;20006;-55
2024/04/11 07:48:54;;;;;;;4.38;3.60;;;;;;;;;;5419291;26;20003;-55
2024/04/11 07:51:20;;;;;;;4.90;3.75;;;;;;;;;;5419697;26;20014;-55
2024/04/11 07:53:49;;;;;;;4.78;4.35;;;;;;;;;;5419349;26;20003;-55
2024/04/11 07:56:19;;;;;;;4.50;3.83;;;;;;;;;;5419349;26;20011;-55
2024/04/11 07:58:45;;;;;;;4.72;3.58;;;;;;;;;;5419341;26;20007;-55
2024/04/11 08:01:11;;;;;;;4.28;3.80;;;;;;;;;;5419321;26;20462;-55
2024/04/11 08:03:37;;;;;;;3.85;3.40;;;;;;;;;;5419207;26;20068;-55
2024/04/11 08:06:03;;;;;;;3.88;3.45;;;;;;;;;;5419120;26;20007;-55
2024/04/11 08:08:28;;;;;;;5.65;4.05;;;;;;;;;;5419007;26;20006;-55
2024/04/11 08:11:02;;;;;;;4.57;3.83;;;;;;;;;;5418922;26;20027;-55
2024/04/11 08:13:30;;;;;;;6.03;3.85;;;;;;;;;;5419389;26;20011;-55
2024/04/11 08:15:56;;;;;;;4.60;3.72;;;;;;;;;;5419458;26;20314;-55
2024/04/11 08:18:22;;;;;;;7.00;6.40;;;;;;;;;;5420379;26;20014;-55
2024/04/11 08:20:47;;;;;;;3.63;3.30;;;;;;;;;;5419229;26;19999;-55
2024/04/11 08:23:16;;;;;;;4.70;3.20;;;;;;;;;;5419107;26;20002;-55
2024/04/11 08:25:41;;;;;;;6.05;3.95;;;;;;;;;;5419271;26;19999;-55
2024/04/11 08:28:07;;;;;;;6.80;5.60;;;;;;;;;;5419131;26;19998;-55
2024/04/11 08:30:35;;;;;;;3.97;3.58;;;;;;;;;;5418979;26;19999;-55
2024/04/11 08:33:00;;;;;;;7.22;5.18;;;;;;;;;;5417449;26;19996;-55
2024/04/11 08:35:25;;;;;;;11.02;8.70;;;;;;;;;;5419045;26;19991;-55
2024/04/11 08:37:51;;;;;;;3.58;3.28;;;;;;;;;;5418857;26;20395;-55
2024/04/11 08:40:19;;;;;;;5.25;3.10;;;;;;;;;;5418770;26;20435;-55
2024/04/11 08:42:47;;;;;;;2.88;2.58;;;;;;;;;;5418742;26;20039;-55
2024/04/11 08:45:13;;;;;;;4.25;2.70;;;;;;;;;;5418479;26;19999;-55
2024/04/11 08:47:39;;;;;;;2.47;2.13;;;;;;;;;;5418300;26;20365;-55
2024/04/11 08:50:05;;;;;;;4.25;2.65;;;;;;;;;;5418658;26;20010;-55
2024/04/11 08:52:31;;;;;;;2.65;2.45;;;;;;;;;;5418046;26;19999;-55
2024/04/11 08:54:57;;;;;;;5.20;2.97;;;;;;;;;;5418522;26;19999;-56
2024/04/11 08:57:22;;;;;;;2.40;2.20;;;;;;;;;;5418431;26;20006;-56
2024/04/11 08:59:49;;;;;;;2.50;2.30;;;;;;;;;;5418524;26;20076;-55
2024/04/11 09:02:15;;;;;;;2.70;2.30;;;;;;;;;;5418459;26;20003;-55
2024/04/11 09:04:40;;;;;;;4.10;2.13;;;;;;;;;;5418319;26;20010;-55
2024/04/11 09:07:06;;;;;;;2.38;2.05;;;;;;;;;;5418297;26;20068;-55
2024/04/11 09:09:31;;;;;;;3.53;2.08;;;;;;;;;;5418333;26;19999;-55
2024/04/11 09:11:56;;;;;;;2.55;2.17;;;;;;;;;;5418240;26;20003;-55
2024/04/11 09:14:23;;;;;;;5.45;2.80;;;;;;;;;;5418830;26;20011;-55
2024/04/11 09:17:04;;;;;;;4.13;2.60;;;;;;;;;;5418521;26;20047;-55
2024/04/11 09:19:39;;;;;;;3.92;2.00;;;;;;;;;;5418240;26;19999;-55
2024/04/11 09:22:13;;;;;;;2.22;2.13;;;;;;;;;;5418442;26;20024;-55
2024/04/11 09:24:45;;;;;;;2.50;2.28;;;;;;;;;;5418447;26;20074;-55
2024/04/11 09:27:16;;;;;;;2.97;2.50;;;;;;;;;;5418201;26;19999;-55
2024/04/11 09:29:46;;;;;;;2.40;2.20;;;;;;;;;;5418371;26;19999;-55
2024/04/11 09:32:12;;;;;;;3.88;2.05;;;;;;;;;;5416184;26;20010;-55
2024/04/11 09:34:38;;;;;;;2.30;1.98;;;;;;;;;;5416660;26;19999;-55
2024/04/11 09:37:07;;;;;;;2.78;1.73;;;;;;;;;;5416183;26;20033;-55
2024/04/11 09:39:49;;;;;;;2.75;2.53;;;;;;;;;;5418025;26;19999;-55
2024/04/11 09:42:18;;;;;;;1.77;1.67;;;;;;;;;;5418253;26;19999;-55
2024/04/11 09:44:47;;;;;;;3.42;1.83;;;;;;;;;;5418120;26;20442;-56
2024/04/11 09:47:19;;;;;;;1.60;1.40;;;;;;;;;;5417949;26;20032;-56
2024/04/11 09:49:55;;;;;;;1.92;1.70;;;;;;;;;;5417828;26;20010;-56
2024/04/11 09:52:22;;;;;;;2.45;2.25;;;;;;;;;;5418033;26;20314;-56
2024/04/11 09:54:50;;;;;;;2.20;2.00;;;;;;;;;;5417759;26;20008;-56
2024/04/11 09:57:15;;;;;;;2.97;2.25;;;;;;;;;;5417210;26;20329;-56
2024/04/11 09:59:42;;;;;;;1.92;1.73;;;;;;;;;;5417025;26;19995;-56
2024/04/11 10:02:09;;;;;;;1.85;1.55;;;;;;;;;;5417506;26;19995;-56
2024/04/11 10:04:36;;;;;;;1.77;1.48;;;;;;;;;;5417465;26;19996;-56
2024/04/11 10:07:08;;;;;;;2.40;1.60;;;;;;;;;;5417524;26;19999;-56
2024/04/11 10:09:34;;;;;;;2.08;1.90;;;;;;;;;;5417138;26;20003;-56
2024/04/11 10:12:01;;;;;;;2.58;1.52;;;;;;;;;;5417199;26;20010;-56
2024/04/11 10:14:28;;;;;;;2.55;1.67;;;;;;;;;;5417339;26;20007;-56
2024/04/11 10:17:01;;;;;;;1.95;1.80;;;;;;;;;;5417105;26;20072;-56
2024/04/11 10:19:27;;;;;;;1.58;1.48;;;;;;;;;;5415637;26;20011;-56
2024/04/11 10:22:00;;;;;;;1.58;1.45;;;;;;;;;;5417158;26;20011;-56
2024/04/11 10:24:31;;;;;;;1.45;1.35;;;;;;;;;;5417502;26;20000;-56
2024/04/11 10:27:09;;;;;;;1.58;1.48;;;;;;;;;;5417270;26;20433;-56
2024/04/11 10:29:35;;;;;;;2.88;1.38;;;;;;;;;;5417170;26;20475;-56
2024/04/11 10:32:02;;;;;;;1.38;1.27;;;;;;;;;;5417178;26;20068;-56
2024/04/11 10:34:37;;;;;;;2.50;1.45;;;;;;;;;;5417309;26;20080;-56
2024/04/11 10:37:03;;;;;;;2.55;1.40;;;;;;;;;;5416879;26;20027;-56
2024/04/11 10:39:38;;;;;;;2.78;1.42;;;;;;;;;;5416910;26;20007;-56
2024/04/11 10:42:07;;;;;;;3.08;2.28;;;;;;;;;;5417169;26;20023;-56
2024/04/11 10:44:38;;;;;;;4.40;2.35;;;;;;;;;;5416825;26;19999;-56
2024/04/11 10:47:07;;;;;;;2.88;1.50;;;;;;;;;;5417205;26;19999;-56
2024/04/11 10:49:41;;;;;;;2.33;1.35;;;;;;;;;;5416799;26;20067;-56
2024/04/11 10:52:10;;;;;;;1.50;1.40;;;;;;;;;;5416880;26;20392;-56
2024/04/11 10:54:36;;;;;;;1.77;1.60;;;;;;;;;;5416565;26;19999;-56
2024/04/11 10:57:02;;;;;;;1.92;1.45;;;;;;;;;;5416933;26;20031;-56
2024/04/11 10:59:32;;;;;;;2.50;1.67;;;;;;;;;;5416837;26;20008;-56
2024/04/11 11:02:02;;;;;;;3.20;1.47;;;;;;;;;;5415117;26;20309;-56
2024/04/11 11:04:30;;;;;;;2.20;1.50;;;;;;;;;;5416941;26;20007;-56
2024/04/11 11:06:59;;;;;;;1.40;1.23;;;;;;;;;;5416354;26;20446;-56
2024/04/11 11:09:27;;;;;;;1.55;1.48;;;;;;;;;;5418075;26;20010;-56
2024/04/11 11:11:54;;;;;;;1.85;1.60;;;;;;;;;;5417768;26;20010;-56
2024/04/11 11:14:24;;;;;;;1.58;1.20;;;;;;;;;;5419488;26;20018;-56
2024/04/11 11:16:50;;;;;;;1.50;1.40;;;;;;;;;;5420022;26;20103;-56
2024/04/11 11:19:20;;;;;;;1.70;1.60;;;;;;;;;;5419980;26;20011;-56
2024/04/11 11:21:51;;;;;;;1.85;1.50;;;;;;;;;;5420039;26;20391;-56
2024/04/11 11:24:23;;;;;;;2.83;1.80;;;;;;;;;;5419767;26;20080;-56
2024/04/11 11:26:53;;;;;;;2.72;1.50;;;;;;;;;;5419511;26;20004;-56
2024/04/11 11:29:26;;;;;;;2.80;1.40;;;;;;;;;;5419738;26;20318;-56
2024/04/11 11:32:04;;;;;;;1.45;1.15;;;;;;;;;;5417690;26;20012;-56
2024/04/11 11:34:31;;;;;;;1.75;1.63;;;;;;;;;;5419485;26;20537;-56
2024/04/11 11:37:03;;;;;;;2.05;1.42;;;;;;;;;;5419620;26;20010;-56
2024/04/11 11:39:33;;;;;;;1.77;1.30;;;;;;;;;;5419235;26;20007;-56
2024/04/11 11:42:43;;;;;;;2.20;1.17;;;;;;;;;;5419741;26;19995;-56
2024/04/11 11:47:34;;;;;;;1.85;1.50;;;;;;;;;;5416853;26;19996;-56
2024/04/11 11:50:18;;;;;;;2.45;1.60;;;;;;;;;;5419629;26;19995;-56
2024/04/11 11:52:44;;;;;;;1.60;1.50;;;;;;;;;;5419529;26;19996;-56
2024/04/11 11:55:16;;;;;;;2.78;1.35;;;;;;;;;;5419638;26;20441;-56
2024/04/11 11:57:42;;;;;;;2.15;1.33;;;;;;;;;;5417234;26;20006;-56
2024/04/11 12:00:24;;;;;;;1.75;1.65;;;;;;;;;;5414321;26;19995;-56
2024/04/11 12:02:50;;;;;;;2.30;1.42;;;;;;;;;;5415926;26;19996;-56
2024/04/11 12:05:17;;;;;;;2.65;1.45;;;;;;;;;;5414371;26;20000;-56
2024/04/11 12:07:45;;;;;;;1.80;1.48;;;;;;;;;;5415907;26;20004;-56
2024/04/11 12:10:13;;;;;;;1.65;1.42;;;;;;;;;;5415595;26;19999;-56
2024/04/11 12:12:40;;;;;;;3.45;2.17;;;;;;;;;;5417720;26;20000;-56
2024/04/11 12:15:05;;;;;;;1.65;1.50;;;;;;;;;;5419858;26;20028;-56
2024/04/11 12:17:31;;;;;;;3.03;1.65;;;;;;;;;;5419271;26;20000;-56
2024/04/11 12:20:05;;;;;;;2.08;1.88;;;;;;;;;;5419676;26;20325;-56
2024/04/11 12:22:33;;;;;;;1.95;1.85;;;;;;;;;;5418658;26;20006;-56
2024/04/11 12:24:59;;;;;;;2.65;1.33;;;;;;;;;;5419020;26;20004;-56
2024/04/11 12:27:28;;;;;;;1.67;1.58;;;;;;;;;;5418726;26;20074;-62
2024/04/11 12:29:54;;;;;;;1.98;1.65;;;;;;;;;;5417220;26;19995;-62
2024/04/11 12:32:19;;;;;;;2.70;1.90;;;;;;;;;;5418902;26;20003;-62
2024/04/11 12:34:47;;;;;;;4.38;1.90;;;;;;;;;;5418814;26;19999;-62
2024/04/11 12:37:16;;;;;;;1.65;1.52;;;;;;;;;;5418753;26;19999;-62
2024/04/11 12:40:06;;;;;;;2.88;1.92;;;;;;;;;;5418175;26;20388;-56
2024/04/11 12:42:32;;;;;;;3.45;2.38;;;;;;;;;;5418173;26;20000;-63
2024/04/11 12:45:00;;;;;;;5.85;2.10;;;;;;;;;;5386924;26;20072;-63
2024/04/11 12:47:50;;;;;;;2.78;2.00;;;;;;;;;;5418316;26;19995;-62
2024/04/11 12:50:21;;;;;;;1.92;1.83;;;;;;;;;;5418383;26;20028;-62
2024/04/11 12:52:49;;;;;;;3.30;2.03;;;;;;;;;;5418371;26;20379;-62
2024/04/11 12:55:24;;;;;;;1.90;1.65;;;;;;;;;;5446377;26;20011;-62
2024/04/11 12:57:53;;;;;;;2.75;2.33;;;;;;;;;;5418425;26;20007;-62
2024/04/11 13:03:18;;;;;;;1.88;1.70;;;;;;;;;;5418435;26;19999;-62
2024/04/11 13:05:53;;;;;;;2.55;1.77;;;;;;;;;;5418244;26;20072;-62
2024/04/11 13:08:22;;;;;;;2.78;1.90;;;;;;;;;;5416447;26;20000;-62
2024/04/11 13:10:55;;;;;;;2.00;1.73;;;;;;;;;;5417972;26;19996;-62
2024/04/11 13:13:39;;;;;;;2.20;1.90;;;;;;;;;;5418023;26;20011;-62
2024/04/11 13:16:09;;;;;;;3.33;2.28;;;;;;;;;;5417926;26;20400;-62
2024/04/11 13:18:36;;;;;;;2.60;1.98;;;;;;;;;;5417740;26;19999;-62
2024/04/11 13:21:03;;;;;;;2.75;2.50;;;;;;;;;;5417250;26;20002;-56
2024/04/11 13:23:32;;;;;;;5.45;3.08;;;;;;;;;;5417772;26;19999;-56
2024/04/11 13:25:58;;;;;;;3.05;2.75;;;;;;;;;;5415904;26;20023;-56
2024/04/11 13:28:28;;;;;;;4.55;2.90;;;;;;;;;;5417146;26;20006;-56
2024/04/11 13:30:56;;;;;;;4.07;2.58;;;;;;;;;;5417320;26;20333;-56
2024/04/11 13:33:22;;;;;;;4.13;3.17;;;;;;;;;;5416010;26;20014;-56
2024/04/11 13:35:50;;;;;;;3.38;3.10;;;;;;;;;;5417815;26;19995;-56
2024/04/11 13:38:17;;;;;;;3.53;2.78;;;;;;;;;;5417873;26;20003;-56
2024/04/11 13:43:37;;;;;;;3.53;2.95;;;;;;;;;;5417424;26;20000;-56
2024/04/11 13:46:15;;;;;;;4.40;3.35;;;;;;;;;;5417561;26;20461;-56
2024/04/11 13:51:24;;;;;;;4.35;3.90;;;;;;;;;;5417631;26;20004;-56
2024/04/11 13:53:56;;;;;;;4.05;3.65;;;;;;;;;;5445501;26;19995;-62
2024/04/11 13:56:47;;;;;;;3.72;3.38;;;;;;;;;;5417269;26;20017;-62
2024/04/11 13:59:16;;;;;;;8.07;4.10;;;;;;;;;;5415577;26;20444;-62
2024/04/11 14:01:50;;;;;;;6.75;4.43;;;;;;;;;;5431155;21;19995;-56
2024/04/11 14:04:16;;;;;;;5.80;4.32;;;;;;;;;;5345420;26;20007;-62
2024/04/11 14:09:36;;;;;;;4.85;3.78;;;;;;;;;;5379635;26;20004;-56
2024/04/11 14:12:12;;;;;;;9.35;4.80;;;;;;;;;;5381867;26;20014;-56
2024/04/11 14:14:38;;;;;;;5.13;4.10;;;;;;;;;;5381744;26;20032;-62
2024/04/11 14:17:06;;;;;;;5.63;4.45;;;;;;;;;;5381920;26;19996;-63
2024/04/11 14:19:35;;;;;;;6.60;4.95;;;;;;;;;;5381501;26;20001;-62
2024/04/11 14:25:29;;;;;;;6.53;4.18;;;;;;;;;;5381437;26;20001;-56
2024/04/11 14:27:47;;;;;;;4.57;3.78;;;;;;;;;;5378142;26;20412;-56
2024/04/11 14:30:25;;;;;;;5.72;3.63;;;;;;;;;;5378338;26;20077;-55
2024/04/11 14:36:25;;;;;;;6.93;3.92;;;;;;;;;;5378635;26;19996;-56
2024/04/11 14:38:08;;;;;;;4.13;3.38;;;;;;;;;;5378036;26;20007;-56
2024/04/11 14:40:36;;;;;;;3.45;2.55;;;;;;;;;;5379647;26;20360;-56
2024/04/11 14:43:20;;;;;;;3.70;2.80;;;;;;;;;;5381073;26;20004;-56
2024/04/11 14:45:46;;;;;;;5.45;3.33;;;;;;;;;;5381839;26;20016;-56
2024/04/11 14:48:33;;;;;;;3.17;2.65;;;;;;;;;;5380864;26;19992;-56
2024/04/11 14:51:03;;;;;;;4.45;2.80;;;;;;;;;;5381058;26;20404;-56
2024/04/11 14:53:38;;;;;;;2.70;2.30;;;;;;;;;;5381628;26;20007;-56
2024/04/11 14:56:14;;;;;;;3.72;2.67;;;;;;;;;;5381370;26;20449;-56
2024/04/11 14:58:42;;;;;;;3.92;2.65;;;;;;;;;;5352235;26;20015;-56
2024/04/11 15:01:14;;;;;;;4.35;2.63;;;;;;;;;;5384392;26;20000;-56
2024/04/11 15:03:44;;;;;;;5.93;2.22;;;;;;;;;;5384563;26;20073;-56
2024/04/11 15:06:16;;;;;;;3.60;1.80;;;;;;;;;;5384239;26;20015;-56
2024/04/11 15:08:41;;;;;;;1.95;1.77;;;;;;;;;;5347076;26;20007;-56
2024/04/11 15:11:11;;;;;;;1.83;1.70;;;;;;;;;;5349372;26;19997;-56